Time;durP1;ratioP1;P1;durP2;ratioP2;P2;SDS_P1;SDS_P2;PMS_P1;PMS_P2;Temp;Humidity;BMP_temperature;BMP_pressure;BME280_temperature;BME280_humidity;BME280_pressure;Samples;Min_cycle;Max_cycle;Signal;HPM_P1;HPM_P2
2023/06/22 00:00:52;;;;;;;0.00;0.00;;;;;;;20.47;100.00;99452.78;5081803;28;20113;-62
2023/06/22 00:03:20;;;;;;;0.00;0.00;;;;;;;20.48;100.00;99459.81;5071455;28;20148;-61
2023/06/22 00:05:47;;;;;;;0.00;0.00;;;;;;;20.51;100.00;99463.06;5082081;28;20072;-62
2023/06/22 00:08:15;;;;;;;0.00;0.00;;;;;;;20.55;100.00;99472.28;5079974;28;20052;-62
2023/06/22 00:10:42;;;;;;;0.00;0.00;;;;;;;20.55;100.00;99483.16;5078263;28;20048;-61
2023/06/22 00:13:09;;;;;;;0.00;0.00;;;;;;;20.51;100.00;99482.13;5072456;28;20495;-60
2023/06/22 00:15:38;;;;;;;0.00;0.00;;;;;;;20.54;100.00;99486.94;5081850;28;20048;-60
2023/06/22 00:18:07;;;;;;;0.00;0.00;;;;;;;20.61;100.00;99490.91;5075842;28;20051;-61
2023/06/22 00:20:36;;;;;;;0.00;0.00;;;;;;;20.64;100.00;99501.22;5075941;28;20044;-60
2023/06/22 00:23:07;;;;;;;0.00;0.00;;;;;;;20.55;100.00;99499.50;5079700;28;20071;-60
2023/06/22 00:25:35;;;;;;;0.00;0.00;;;;;;;20.43;100.00;99495.31;5083348;28;20032;-61
2023/06/22 00:28:03;;;;;;;0.08;0.08;;;;;;;20.32;100.00;99493.91;5071684;28;20049;-60
2023/06/22 00:30:31;;;;;;;0.00;0.00;;;;;;;20.09;100.00;99492.13;5076093;28;20046;-61
2023/06/22 00:32:59;;;;;;;0.00;0.00;;;;;;;20.11;100.00;99487.22;5080744;28;20086;-60
2023/06/22 00:35:29;;;;;;;0.00;0.00;;;;;;;20.12;100.00;99484.19;5069008;28;20047;-60
2023/06/22 00:38:00;;;;;;;;;;;;;;;20.19;100.00;99489.22;5077306;28;20067;-60
2023/06/22 00:40:28;;;;;;;0.00;0.00;;;;;;;20.26;100.00;99489.66;5079606;28;19931;-60
2023/06/22 00:42:56;;;;;;;0.00;0.00;;;;;;;20.14;100.00;99492.03;5080877;28;20056;-60
2023/06/22 00:45:24;;;;;;;0.00;0.00;;;;;;;20.26;100.00;99506.78;5074293;28;20054;-62
2023/06/22 00:47:52;;;;;;;0.00;0.00;;;;;;;20.32;100.00;99501.25;5099443;28;20036;-61
2023/06/22 00:50:22;;;;;;;0.00;0.00;;;;;;;20.29;100.00;99508.09;5072203;28;20045;-61
2023/06/22 00:52:52;;;;;;;0.00;0.00;;;;;;;20.35;100.00;99506.91;5072901;28;20139;-62
2023/06/22 00:55:20;;;;;;;0.00;0.00;;;;;;;20.13;100.00;99506.75;5081182;28;20398;-62
2023/06/22 00:57:48;;;;;;;0.00;0.00;;;;;;;20.13;100.00;99498.59;5075285;28;20051;-61
2023/06/22 01:00:17;;;;;;;0.00;0.00;;;;;;;20.02;100.00;99511.59;5078955;28;20067;-61
2023/06/22 01:02:46;;;;;;;0.07;0.07;;;;;;;20.08;100.00;99512.28;5068171;28;20052;-61
2023/06/22 01:05:14;;;;;;;0.00;0.00;;;;;;;20.01;100.00;99502.59;5078991;28;20842;-61
2023/06/22 01:07:46;;;;;;;0.00;0.00;;;;;;;19.79;100.00;99497.81;5081591;28;20052;-61
2023/06/22 01:10:17;;;;;;;0.00;0.00;;;;;;;19.85;100.00;99490.38;5075851;28;20055;-61
2023/06/22 01:12:47;;;;;;;0.00;0.00;;;;;;;19.90;100.00;99490.28;5074200;28;20571;-61
2023/06/22 01:15:17;;;;;;;0.00;0.00;;;;;;;19.91;100.00;99493.81;5058800;28;20053;-61
2023/06/22 01:17:44;;;;;;;0.00;0.00;;;;;;;20.00;100.00;99481.16;5074766;28;20347;-62
2023/06/22 01:20:12;;;;;;;0.00;0.00;;;;;;;20.11;100.00;99481.75;5073562;28;20254;-62
2023/06/22 01:22:47;;;;;;;0.00;0.00;;;;;;;20.07;100.00;99475.28;5079368;28;20044;-61
2023/06/22 01:25:20;;;;;;;0.00;0.00;;;;;;;20.09;100.00;99473.09;5079093;28;20044;-62
2023/06/22 01:27:51;;;;;;;0.05;0.05;;;;;;;20.08;100.00;99466.84;5072101;28;21803;-62
2023/06/22 01:30:20;;;;;;;0.00;0.00;;;;;;;20.12;100.00;99467.03;5075456;28;20058;-61
2023/06/22 01:32:47;;;;;;;0.00;0.00;;;;;;;20.02;100.00;99471.56;5076067;28;20047;-62
2023/06/22 01:35:15;;;;;;;0.00;0.00;;;;;;;19.97;100.00;99468.94;5081167;28;20044;-62
2023/06/22 01:37:42;;;;;;;0.00;0.00;;;;;;;19.99;100.00;99468.63;5073198;28;20055;-62
2023/06/22 01:40:10;;;;;;;0.10;0.00;;;;;;;20.03;100.00;99453.34;5067309;28;20075;-61
2023/06/22 01:42:38;;;;;;;0.00;0.00;;;;;;;20.04;100.00;99455.78;5073126;28;20044;-61
2023/06/22 01:45:06;;;;;;;0.00;0.00;;;;;;;20.03;100.00;99454.13;5071002;28;20135;-62
2023/06/22 01:47:35;;;;;;;0.00;0.00;;;;;;;19.96;100.00;99451.00;5074860;28;20123;-62
2023/06/22 01:50:03;;;;;;;0.00;0.00;;;;;;;20.00;100.00;99459.38;5076572;28;20069;-61
2023/06/22 01:52:33;;;;;;;0.00;0.00;;;;;;;20.01;100.00;99458.25;5070095;28;20041;-62
2023/06/22 01:55:01;;;;;;;0.00;0.00;;;;;;;19.99;100.00;99469.47;5078821;28;20067;-61
2023/06/22 01:57:28;;;;;;;0.00;0.00;;;;;;;19.98;100.00;99470.56;5078439;28;20432;-61
2023/06/22 02:00:00;;;;;;;0.00;0.00;;;;;;;19.99;100.00;99474.91;5077322;28;20052;-61
2023/06/22 02:02:29;;;;;;;0.10;0.10;;;;;;;20.08;100.00;99482.38;5073849;28;20155;-62
2023/06/22 02:05:00;;;;;;;0.00;0.00;;;;;;;20.08;100.00;99491.34;5078521;28;20422;-61
2023/06/22 02:07:32;;;;;;;0.00;0.00;;;;;;;20.00;100.00;99492.03;5067977;28;20040;-61
2023/06/22 02:10:02;;;;;;;0.10;0.00;;;;;;;19.79;100.00;99486.09;5067700;28;20055;-61
2023/06/22 02:12:30;;;;;;;0.00;0.00;;;;;;;20.00;100.00;99487.38;5067289;28;20079;-61
2023/06/22 02:14:57;;;;;;;0.00;0.00;;;;;;;19.97;100.00;99477.09;5082904;28;20048;-62
2023/06/22 02:17:25;;;;;;;0.00;0.00;;;;;;;20.02;100.00;99471.56;5073169;28;20048;-62
2023/06/22 02:19:53;;;;;;;0.00;0.00;;;;;;;19.91;100.00;99459.25;5068358;28;20198;-62
2023/06/22 02:22:23;;;;;;;0.00;0.00;;;;;;;19.89;100.00;99447.84;5062366;28;20040;-62
2023/06/22 02:24:50;;;;;;;;;;;;;;;19.77;100.00;99433.94;5084645;28;20041;-62
2023/06/22 02:27:18;;;;;;;0.00;0.00;;;;;;;19.72;100.00;99431.28;5081503;28;19927;-61
2023/06/22 02:29:45;;;;;;;0.00;0.00;;;;;;;19.64;100.00;99415.63;5073150;28;20402;-61
2023/06/22 02:32:12;;;;;;;0.00;0.00;;;;;;;19.55;100.00;99402.72;5078027;28;20044;-61
2023/06/22 02:34:40;;;;;;;0.00;0.00;;;;;;;19.57;100.00;99410.59;5079487;28;20040;-61
2023/06/22 02:37:07;;;;;;;0.00;0.00;;;;;;;19.59;100.00;99417.34;5073581;28;20566;-61
2023/06/22 02:39:36;;;;;;;0.00;0.00;;;;;;;19.59;100.00;99420.06;5072894;28;20044;-61
2023/06/22 02:42:05;;;;;;;0.00;0.00;;;;;;;19.69;100.00;99431.88;5067208;28;20044;-61
2023/06/22 02:44:32;;;;;;;0.00;0.00;;;;;;;19.71;100.00;99426.97;5072873;28;20103;-61
2023/06/22 02:47:00;;;;;;;0.00;0.00;;;;;;;19.75;100.00;99436.16;5077720;28;20056;-62
2023/06/22 02:49:27;;;;;;;0.00;0.00;;;;;;;19.73;100.00;99427.47;5071512;28;20040;-61
2023/06/22 02:51:55;;;;;;;0.00;0.00;;;;;;;19.64;100.00;99429.22;5075552;28;20063;-61
2023/06/22 02:54:23;;;;;;;0.00;0.00;;;;;;;19.60;100.00;99427.09;5081841;28;20093;-61
2023/06/22 02:56:54;;;;;;;;;;;;;;;19.51;100.00;99428.09;5081374;28;20105;-59
2023/06/22 02:59:23;;;;;;;0.00;0.00;;;;;;;19.45;100.00;99430.09;5072377;28;20013;-62
2023/06/22 03:01:53;;;;;;;0.00;0.00;;;;;;;19.38;100.00;99437.81;5077323;28;20106;-62
2023/06/22 03:04:25;;;;;;;0.10;0.10;;;;;;;19.37;100.00;99437.00;5074402;28;20052;-59
2023/06/22 03:06:53;;;;;;;0.10;0.10;;;;;;;19.39;100.00;99428.53;5079331;28;20040;-62
2023/06/22 03:09:21;;;;;;;0.00;0.00;;;;;;;19.35;100.00;99424.81;5071926;28;20071;-62
2023/06/22 03:11:48;;;;;;;0.00;0.00;;;;;;;19.45;100.00;99421.94;5077433;28;20048;-61
2023/06/22 03:14:17;;;;;;;0.00;0.00;;;;;;;19.45;100.00;99416.50;5071929;28;20044;-62
2023/06/22 03:16:44;;;;;;;0.00;0.00;;;;;;;19.26;100.00;99407.56;5074901;28;20053;-62
2023/06/22 03:19:13;;;;;;;0.00;0.00;;;;;;;19.23;100.00;99408.16;5080318;28;20154;-62
2023/06/22 03:21:40;;;;;;;0.08;0.00;;;;;;;19.28;100.00;99405.34;5079551;28;20411;-61
2023/06/22 03:24:08;;;;;;;0.00;0.00;;;;;;;19.28;100.00;99405.34;5069241;28;20037;-62
2023/06/22 03:26:35;;;;;;;0.10;0.10;;;;;;;19.33;100.00;99403.34;5077072;28;20594;-62
2023/06/22 03:29:03;;;;;;;0.00;0.00;;;;;;;19.25;100.00;99400.50;5077074;28;20541;-61
2023/06/22 03:31:33;;;;;;;0.00;0.00;;;;;;;19.14;100.00;99403.34;5077482;28;20044;-61
2023/06/22 03:34:01;;;;;;;0.03;0.03;;;;;;;18.86;100.00;99407.84;5070948;28;20047;-61
2023/06/22 03:36:28;;;;;;;0.00;0.00;;;;;;;18.97;100.00;99403.09;5071575;28;20047;-61
2023/06/22 03:38:56;;;;;;;0.10;0.10;;;;;;;19.07;100.00;99399.41;5082837;28;20044;-61
2023/06/22 03:41:25;;;;;;;0.10;0.10;;;;;;;19.18;100.00;99407.13;5071713;28;20387;-61
2023/06/22 03:43:53;;;;;;;0.10;0.10;;;;;;;19.12;100.00;99413.75;5076250;28;20151;-62
2023/06/22 03:46:20;;;;;;;0.00;0.00;;;;;;;19.11;100.00;99406.69;5072861;28;20051;-62
2023/06/22 03:48:49;;;;;;;0.00;0.00;;;;;;;19.02;100.00;99400.31;5069654;28;20441;-61
2023/06/22 03:51:17;;;;;;;0.13;0.13;;;;;;;18.98;100.00;99402.00;5081470;28;20490;-61
2023/06/22 03:53:45;;;;;;;0.00;0.00;;;;;;;19.01;100.00;99406.81;5080441;28;20028;-59
2023/06/22 03:56:12;;;;;;;0.00;0.00;;;;;;;19.02;100.00;99408.47;5079628;28;20141;-61
2023/06/22 03:58:42;;;;;;;0.00;0.00;;;;;;;19.02;100.00;99411.16;5079899;28;20033;-61
2023/06/22 04:01:11;;;;;;;0.00;0.00;;;;;;;18.98;100.00;99396.56;5074366;28;20051;-61
2023/06/22 04:03:38;;;;;;;0.08;0.08;;;;;;;18.94;100.00;99399.03;5077787;28;20052;-61
2023/06/22 04:06:07;;;;;;;0.03;0.03;;;;;;;18.91;100.00;99406.97;5081966;28;20044;-61
2023/06/22 04:08:34;;;;;;;0.00;0.00;;;;;;;18.95;100.00;99397.16;5069614;28;20040;-61
2023/06/22 04:11:02;;;;;;;0.00;0.00;;;;;;;18.92;100.00;99403.97;5076018;28;20143;-61
2023/06/22 04:13:29;;;;;;;0.00;0.00;;;;;;;19.00;100.00;99402.50;5075800;28;20109;-61
2023/06/22 04:15:57;;;;;;;0.03;0.03;;;;;;;18.95;100.00;99405.31;5079055;28;20486;-61
2023/06/22 04:18:24;;;;;;;0.00;0.00;;;;;;;18.92;100.00;99408.56;5073067;28;20490;-61
2023/06/22 04:20:51;;;;;;;0.00;0.00;;;;;;;18.89;100.00;99404.53;5073081;28;20067;-61
2023/06/22 04:23:20;;;;;;;0.00;0.00;;;;;;;19.03;100.00;99396.47;5076894;28;20576;-61
2023/06/22 04:25:48;;;;;;;0.05;0.05;;;;;;;19.03;100.00;99404.63;5074129;28;20133;-61
2023/06/22 04:28:15;;;;;;;0.00;0.00;;;;;;;19.12;100.00;99402.88;5082698;28;20051;-61
2023/06/22 04:30:46;;;;;;;0.00;0.00;;;;;;;19.08;100.00;99401.84;5076178;28;20039;-61
2023/06/22 04:33:14;;;;;;;0.00;0.00;;;;;;;19.11;100.00;99406.69;5077745;28;20203;-61
2023/06/22 04:35:42;;;;;;;0.00;0.00;;;;;;;19.31;100.00;99411.00;5081655;28;20156;-61
2023/06/22 04:38:10;;;;;;;0.00;0.00;;;;;;;19.53;100.00;99404.94;5074331;28;20118;-61
2023/06/22 04:40:40;;;;;;;0.08;0.08;;;;;;;19.79;100.00;99399.06;5078495;28;20052;-61
2023/06/22 04:43:09;;;;;;;;;;;;;;;19.79;100.00;99405.34;5056390;28;20080;-61
2023/06/22 04:45:37;;;;;;;0.00;0.00;;;;;;;19.81;100.00;99402.31;5082511;28;19931;-61
2023/06/22 04:48:06;;;;;;;0.00;0.00;;;;;;;19.88;100.00;99397.28;5064347;28;20056;-61
2023/06/22 04:50:33;;;;;;;0.00;0.00;;;;;;;20.14;100.00;99394.88;5069742;28;20376;-60
2023/06/22 04:53:05;;;;;;;0.05;0.05;;;;;;;20.17;100.00;99398.94;5072056;28;20044;-62
2023/06/22 04:55:32;;;;;;;0.00;0.00;;;;;;;20.30;100.00;99392.69;5069814;28;20211;-61
2023/06/22 04:58:04;;;;;;;0.10;0.10;;;;;;;20.56;100.00;99387.53;5068998;28;20276;-60
2023/06/22 05:00:32;;;;;;;0.00;0.00;;;;;;;20.82;100.00;99387.00;5073133;28;20053;-61
2023/06/22 05:02:59;;;;;;;0.10;0.10;;;;;;;20.99;100.00;99397.25;5077442;28;20082;-61
2023/06/22 05:05:26;;;;;;;0.00;0.00;;;;;;;21.31;100.00;99398.94;5075058;28;20481;-61
2023/06/22 05:07:54;;;;;;;0.25;0.17;;;;;;;22.68;93.84;99395.63;5071788;28;20498;-61
2023/06/22 05:10:22;;;;;;;0.45;0.32;;;;;;;22.94;89.62;99399.19;5076453;28;20884;-61
2023/06/22 05:12:49;;;;;;;0.20;0.20;;;;;;;23.17;88.44;99396.34;5071396;28;20037;-61
2023/06/22 05:15:19;;;;;;;0.20;0.20;;;;;;;23.64;84.63;99394.50;5072732;28;20131;-61
2023/06/22 05:17:46;;;;;;;;;;;;;;;23.00;88.29;99387.00;5075799;28;20491;-61
2023/06/22 05:20:14;;;;;;;0.20;0.10;;;;;;;23.19;85.67;99377.69;5073602;28;19955;-61
2023/06/22 05:22:42;;;;;;;0.65;0.20;;;;;;;23.09;88.27;99383.47;5079027;28;20047;-61
2023/06/22 05:25:11;;;;;;;0.05;0.05;;;;;;;22.06;93.25;99378.22;5077804;28;20093;-61
2023/06/22 05:27:40;;;;;;;0.20;0.20;;;;;;;21.87;97.95;99377.69;5076993;28;20604;-62
2023/06/22 05:30:08;;;;;;;0.00;0.00;;;;;;;22.02;96.32;99385.44;5072845;28;20513;-61
2023/06/22 05:32:37;;;;;;;0.13;0.13;;;;;;;21.95;97.12;99387.81;5069795;28;20045;-61
2023/06/22 05:35:05;;;;;;;0.08;0.08;;;;;;;21.98;96.67;99377.06;5072008;28;20040;-61
2023/06/22 05:37:33;;;;;;;0.17;0.17;;;;;;;22.54;93.46;99371.16;5076031;28;20094;-61
2023/06/22 05:40:00;;;;;;;0.20;0.20;;;;;;;23.19;87.47;99377.69;5069890;28;20414;-62
2023/06/22 05:42:28;;;;;;;0.28;0.28;;;;;;;23.13;90.30;99379.75;5073826;28;20044;-61
2023/06/22 05:44:55;;;;;;;0.20;0.20;;;;;;;24.93;79.29;99383.28;5078847;28;20048;-61
2023/06/22 05:47:23;;;;;;;0.10;0.10;;;;;;;25.09;79.35;99388.19;5069838;28;20503;-61
2023/06/22 05:49:52;;;;;;;0.10;0.10;;;;;;;26.36;72.92;99384.75;5078389;28;20048;-62
2023/06/22 05:52:19;;;;;;;0.22;0.22;;;;;;;25.18;76.28;99395.19;5082925;28;20560;-61
2023/06/22 05:54:46;;;;;;;0.13;0.13;;;;;;;24.96;79.34;99392.78;5071462;28;20052;-61
2023/06/22 05:57:14;;;;;;;0.30;0.30;;;;;;;24.36;81.50;99394.75;5077415;28;20055;-61
2023/06/22 05:59:41;;;;;;;0.20;0.20;;;;;;;23.93;84.43;99394.94;5081629;28;20048;-61
2023/06/22 06:02:09;;;;;;;0.20;0.20;;;;;;;24.84;81.52;99390.00;5072953;28;20052;-62
2023/06/22 06:04:36;;;;;;;0.10;0.10;;;;;;;25.43;75.88;99383.53;5070605;28;20047;-61
2023/06/22 06:07:05;;;;;;;0.10;0.10;;;;;;;24.49;77.91;99396.50;5075220;28;20121;-61
2023/06/22 06:09:32;;;;;;;0.10;0.10;;;;;;;25.17;77.00;99399.09;5076936;28;20048;-61
2023/06/22 06:12:02;;;;;;;0.00;0.00;;;;;;;24.09;80.89;99404.22;5077955;28;20048;-61
2023/06/22 06:14:30;;;;;;;0.10;0.10;;;;;;;23.79;82.32;99406.91;5074140;28;20078;-61
2023/06/22 06:16:57;;;;;;;0.03;0.03;;;;;;;24.01;83.64;99399.56;5075317;28;20044;-60
2023/06/22 06:19:24;;;;;;;0.10;0.10;;;;;;;24.58;81.71;99409.31;5078702;28;20052;-61
2023/06/22 06:21:52;;;;;;;0.10;0.10;;;;;;;24.66;80.08;99401.06;5079622;28;20490;-60
2023/06/22 06:24:21;;;;;;;0.10;0.10;;;;;;;24.75;80.56;99399.06;5078302;28;20036;-60
2023/06/22 06:26:48;;;;;;;0.10;0.10;;;;;;;25.39;77.47;99397.94;5076196;28;20059;-60
2023/06/22 06:29:17;;;;;;;0.05;0.05;;;;;;;25.13;78.61;99400.84;5077125;28;20055;-60
2023/06/22 06:31:44;;;;;;;0.10;0.10;;;;;;;25.01;79.58;99395.34;5075920;28;20044;-60
2023/06/22 06:34:12;;;;;;;0.20;0.10;;;;;;;25.33;78.17;99395.72;5078488;28;20374;-60
2023/06/22 06:36:39;;;;;;;0.10;0.10;;;;;;;24.50;81.31;99400.03;5080363;28;20044;-61
2023/06/22 06:39:07;;;;;;;0.15;0.00;;;;;;;24.62;77.76;99389.16;5073010;28;20550;-61
2023/06/22 06:41:36;;;;;;;0.00;0.00;;;;;;;24.46;77.84;99402.63;5077733;28;20055;-61
2023/06/22 06:44:03;;;;;;;0.00;0.00;;;;;;;24.31;78.58;99403.97;5078935;28;20052;-61
2023/06/22 06:46:31;;;;;;;0.00;0.00;;;;;;;24.02;79.47;99402.00;5082332;28;20044;-61
2023/06/22 06:48:58;;;;;;;0.00;0.00;;;;;;;24.03;80.99;99395.38;5081010;28;20534;-61
2023/06/22 06:51:25;;;;;;;0.00;0.00;;;;;;;23.86;79.63;99390.78;5081400;28;20076;-60
2023/06/22 06:53:53;;;;;;;0.00;0.00;;;;;;;24.37;78.47;99388.16;5080219;28;20055;-61
2023/06/22 06:56:20;;;;;;;0.00;0.00;;;;;;;26.08;69.76;99386.56;5081325;28;20059;-61
2023/06/22 06:58:51;;;;;;;0.08;0.00;;;;;;;24.85;75.50;99391.59;5082690;28;20055;-62
2023/06/22 07:01:19;;;;;;;0.00;0.00;;;;;;;24.45;76.46;99390.06;5076456;28;20052;-62
2023/06/22 07:03:47;;;;;;;0.00;0.00;;;;;;;24.01;79.07;99394.09;5078176;28;20493;-61
2023/06/22 07:06:16;;;;;;;0.00;0.00;;;;;;;23.72;79.74;99395.63;5082652;28;20075;-60
2023/06/22 07:08:43;;;;;;;0.00;0.00;;;;;;;23.93;79.76;99389.47;5073689;28;20076;-60
2023/06/22 07:11:11;;;;;;;0.00;0.00;;;;;;;23.40;81.76;99389.56;5074788;28;20130;-60
2023/06/22 07:13:38;;;;;;;0.00;0.00;;;;;;;24.18;78.48;99380.34;5072654;28;20051;-60
2023/06/22 07:16:07;;;;;;;0.10;0.10;;;;;;;24.32;78.70;99375.44;5076695;28;20536;-60
2023/06/22 07:18:35;;;;;;;0.08;0.08;;;;;;;25.42;74.73;99360.00;5077379;28;20059;-60
2023/06/22 07:21:03;;;;;;;0.00;0.00;;;;;;;27.76;64.73;99358.53;5075494;28;20164;-60
2023/06/22 07:23:31;;;;;;;0.00;0.00;;;;;;;26.80;67.26;99357.44;5076513;28;20067;-60
2023/06/22 07:26:01;;;;;;;0.08;0.08;;;;;;;27.61;64.17;99357.38;5079420;28;20161;-60
2023/06/22 07:28:30;;;;;;;0.00;0.00;;;;;;;27.28;64.44;99355.72;5075358;28;20048;-62
2023/06/22 07:31:21;;;;;;;0.00;0.00;;;;;;;27.96;62.82;99351.97;5077449;28;20098;-59
2023/06/22 07:33:48;;;;;;;0.00;0.00;;;;;;;28.13;61.44;99344.50;5074154;28;20074;-59
2023/06/22 07:36:16;;;;;;;0.00;0.00;;;;;;;28.57;59.58;99347.91;5075426;28;20063;-60
2023/06/22 07:38:43;;;;;;;0.00;0.00;;;;;;;28.12;61.73;99343.69;5076653;28;20036;-60
2023/06/22 07:41:11;;;;;;;0.00;0.00;;;;;;;29.61;57.35;99340.94;5070840;28;20048;-59
2023/06/22 07:43:38;;;;;;;0.00;0.00;;;;;;;29.17;57.36;99346.81;5082110;28;20032;-60
2023/06/22 07:46:05;;;;;;;0.00;0.00;;;;;;;28.24;60.29;99339.25;5076496;28;20057;-61
2023/06/22 07:48:34;;;;;;;0.00;0.00;;;;;;;28.88;58.98;99335.19;5073510;28;20477;-60
2023/06/22 07:51:01;;;;;;;0.00;0.00;;;;;;;27.57;62.77;99328.13;5072746;28;20055;-60
2023/06/22 07:53:30;;;;;;;0.00;0.00;;;;;;;27.60;64.06;99322.72;5062173;28;20043;-60
2023/06/22 07:55:57;;;;;;;0.00;0.00;;;;;;;30.16;54.85;99319.38;5078265;28;20464;-59
2023/06/22 07:58:25;;;;;;;0.00;0.00;;;;;;;27.99;61.00;99322.94;5071379;28;20502;-60
2023/06/22 08:00:52;;;;;;;0.00;0.00;;;;;;;28.01;61.86;99312.34;5075779;28;20433;-60
2023/06/22 08:03:20;;;;;;;0.00;0.00;;;;;;;27.87;62.19;99309.25;5069193;28;20036;-60
2023/06/22 08:05:49;;;;;;;0.00;0.00;;;;;;;28.91;60.72;99301.34;5074696;28;20043;-60
2023/06/22 08:08:17;;;;;;;0.00;0.00;;;;;;;29.77;56.86;99296.63;5076920;28;20453;-59
2023/06/22 08:10:44;;;;;;;0.00;0.00;;;;;;;30.18;55.33;99280.28;5076797;28;20079;-61
2023/06/22 08:13:12;;;;;;;0.00;0.00;;;;;;;29.34;56.91;99280.09;5082407;28;20558;-59
2023/06/22 08:15:39;;;;;;;0.00;0.00;;;;;;;28.99;58.63;99274.69;5078848;28;20040;-60
2023/06/22 08:18:06;;;;;;;0.00;0.00;;;;;;;28.88;60.23;99282.78;5076783;28;20055;-60
2023/06/22 08:20:34;;;;;;;0.00;0.00;;;;;;;29.31;57.84;99286.38;5072867;28;20039;-59
2023/06/22 08:23:06;;;;;;;0.10;0.03;;;;;;;28.15;61.38;99287.88;5079515;28;20402;-59
2023/06/22 08:25:34;;;;;;;0.00;0.00;;;;;;;28.32;61.37;99286.69;5078299;28;20139;-60
2023/06/22 08:28:01;;;;;;;0.00;0.00;;;;;;;28.20;61.84;99275.78;5079816;28;20040;-60
2023/06/22 08:30:29;;;;;;;0.00;0.00;;;;;;;26.37;66.50;99283.88;5082537;28;20036;-59
2023/06/22 08:32:56;;;;;;;0.00;0.00;;;;;;;26.81;66.64;99268.31;5074502;28;20054;-59
2023/06/22 08:35:24;;;;;;;0.00;0.00;;;;;;;27.10;65.19;99269.09;5069790;28;20083;-61
2023/06/22 08:37:54;;;;;;;0.00;0.00;;;;;;;27.26;64.41;99269.97;5074457;28;20067;-60
2023/06/22 08:40:23;;;;;;;0.00;0.00;;;;;;;27.60;62.45;99278.66;5079177;28;20421;-61
2023/06/22 08:42:50;;;;;;;0.00;0.00;;;;;;;27.24;64.38;99258.50;5082406;28;20740;-62
2023/06/22 08:45:17;;;;;;;0.00;0.00;;;;;;;28.20;62.73;99251.00;5076296;28;20211;-61
2023/06/22 08:47:45;;;;;;;0.00;0.00;;;;;;;28.04;62.19;99244.72;5085602;28;20040;-61
2023/06/22 08:50:13;;;;;;;0.00;0.00;;;;;;;28.05;62.57;99232.53;5081374;28;20040;-61
2023/06/22 08:52:42;;;;;;;0.13;0.00;;;;;;;27.74;62.21;99239.69;5079934;28;20110;-61
2023/06/22 08:55:10;;;;;;;0.00;0.00;;;;;;;28.78;59.58;99242.78;5080843;28;20075;-61
2023/06/22 08:57:39;;;;;;;0.00;0.00;;;;;;;27.11;62.90;99240.44;5077700;28;20491;-61
2023/06/22 09:00:15;;;;;;;0.00;0.00;;;;;;;27.07;64.09;99239.56;5075036;28;20202;-61
2023/06/22 09:02:42;;;;;;;0.00;0.00;;;;;;;26.97;66.02;99234.56;5072373;28;20437;-61
2023/06/22 09:05:10;;;;;;;0.00;0.00;;;;;;;27.97;60.94;99217.81;5077747;28;20455;-61
2023/06/22 09:07:37;;;;;;;0.00;0.00;;;;;;;27.94;61.54;99204.78;5083631;28;20541;-61
2023/06/22 09:10:06;;;;;;;0.00;0.00;;;;;;;27.26;63.95;99201.19;5081367;28;20039;-61
2023/06/22 09:12:34;;;;;;;0.00;0.00;;;;;;;27.70;62.71;99192.78;5076861;28;20210;-61
2023/06/22 09:15:03;;;;;;;0.00;0.00;;;;;;;27.45;62.65;99183.94;5076153;28;20041;-62
2023/06/22 09:17:32;;;;;;;0.00;0.00;;;;;;;27.03;62.56;99173.47;5075523;28;20383;-61
2023/06/22 09:20:00;;;;;;;0.00;0.00;;;;;;;26.57;64.55;99173.00;5072412;28;20059;-61
2023/06/22 09:22:29;;;;;;;0.00;0.00;;;;;;;26.89;64.55;99175.84;5074538;28;20549;-60
2023/06/22 09:24:56;;;;;;;0.00;0.00;;;;;;;26.50;66.58;99161.00;5077456;28;20076;-60
2023/06/22 09:27:24;;;;;;;0.00;0.00;;;;;;;26.22;67.94;99164.53;5079727;28;20052;-61
2023/06/22 09:29:52;;;;;;;0.00;0.00;;;;;;;25.98;68.41;99157.94;5071182;28;20192;-61
2023/06/22 09:32:20;;;;;;;0.00;0.00;;;;;;;26.37;67.58;99147.31;5068892;28;20040;-61
2023/06/22 09:34:48;;;;;;;0.00;0.00;;;;;;;26.55;66.39;99141.53;5073316;28;20051;-61
2023/06/22 09:37:15;;;;;;;0.00;0.00;;;;;;;25.91;68.12;99141.28;5078977;28;20037;-61
2023/06/22 09:39:43;;;;;;;0.00;0.00;;;;;;;25.58;70.73;99141.41;5076858;28;20040;-60
2023/06/22 09:42:11;;;;;;;0.00;0.00;;;;;;;25.53;71.41;99130.66;5082253;28;20040;-61
2023/06/22 09:44:38;;;;;;;0.00;0.00;;;;;;;25.70;71.30;99135.13;5074665;28;20521;-61
2023/06/22 09:47:07;;;;;;;0.00;0.00;;;;;;;25.58;71.99;99133.97;5082186;28;20044;-61
2023/06/22 09:49:36;;;;;;;0.00;0.00;;;;;;;25.76;70.83;99139.22;5072357;28;20032;-61
2023/06/22 09:52:03;;;;;;;0.00;0.00;;;;;;;25.80;71.22;99145.63;5072608;28;20075;-60
2023/06/22 09:54:31;;;;;;;0.00;0.00;;;;;;;25.68;71.48;99153.88;5075850;28;20131;-60
2023/06/22 09:56:58;;;;;;;0.00;0.00;;;;;;;25.49;72.63;99151.72;5083746;28;20082;-61
2023/06/22 09:59:25;;;;;;;0.00;0.00;;;;;;;25.50;72.27;99142.34;5082042;28;20040;-61
2023/06/22 10:01:53;;;;;;;0.00;0.00;;;;;;;25.17;73.84;99146.00;5088220;28;20051;-61
2023/06/22 10:04:21;;;;;;;0.00;0.00;;;;;;;25.11;73.88;99148.16;5077413;28;20045;-61
2023/06/22 10:06:50;;;;;;;0.00;0.00;;;;;;;25.09;74.16;99163.34;5078132;28;20035;-61
2023/06/22 10:09:17;;;;;;;0.00;0.00;;;;;;;25.23;74.29;99201.41;5074221;28;20109;-62
2023/06/22 10:11:44;;;;;;;0.00;0.00;;;;;;;25.07;75.19;99248.66;5084940;28;20513;-61
2023/06/22 10:14:12;;;;;;;0.00;0.00;;;;;;;25.36;74.85;99257.88;5080422;28;20044;-61
2023/06/22 10:16:40;;;;;;;0.00;0.00;;;;;;;25.43;76.34;99252.66;5081076;28;20135;-61
2023/06/22 10:19:08;;;;;;;0.00;0.00;;;;;;;25.31;77.86;99245.22;5079751;28;20044;-61
2023/06/22 10:21:35;;;;;;;0.00;0.00;;;;;;;24.87;80.37;99233.06;5080861;28;20050;-61
2023/06/22 10:24:06;;;;;;;0.00;0.00;;;;;;;24.68;80.23;99220.66;5075718;28;20101;-61
2023/06/22 10:26:34;;;;;;;0.00;0.00;;;;;;;24.60;82.75;99213.31;5081311;28;20049;-62
2023/06/22 10:29:01;;;;;;;0.00;0.00;;;;;;;24.73;83.70;99201.25;5085310;28;20402;-60
2023/06/22 10:31:29;;;;;;;0.00;0.00;;;;;;;24.91;85.94;99201.09;5081241;28;20071;-60
2023/06/22 10:33:56;;;;;;;0.00;0.00;;;;;;;24.84;85.81;99209.09;5086004;28;20113;-60
2023/06/22 10:36:24;;;;;;;0.00;0.00;;;;;;;24.93;83.18;99194.13;5084709;28;20040;-60
2023/06/22 10:38:53;;;;;;;0.00;0.00;;;;;;;25.38;83.42;99190.56;5080560;28;20490;-61
2023/06/22 10:41:22;;;;;;;0.00;0.00;;;;;;;26.22;87.87;99194.75;5079052;28;20040;-61
2023/06/22 10:43:49;;;;;;;0.00;0.00;;;;;;;26.86;87.35;99195.78;5072035;28;20091;-61
2023/06/22 10:46:17;;;;;;;0.00;0.00;;;;;;;26.77;88.01;99206.13;5077343;28;20028;-60
2023/06/22 10:48:44;;;;;;;0.00;0.00;;;;;;;27.17;92.91;99213.47;5083554;28;20138;-60
2023/06/22 10:51:12;;;;;;;0.00;0.00;;;;;;;27.68;90.56;99217.16;5080411;28;20451;-61
2023/06/22 10:53:39;;;;;;;0.10;0.10;;;;;;;27.90;83.54;99217.66;5078163;28;20051;-61
2023/06/22 10:56:07;;;;;;;0.00;0.00;;;;;;;28.39;81.10;99212.44;5083218;28;20040;-61
2023/06/22 10:58:36;;;;;;;0.00;0.00;;;;;;;28.53;80.46;99206.44;5082415;28;20037;-61
2023/06/22 11:01:04;;;;;;;0.00;0.00;;;;;;;28.92;77.07;99195.34;5079986;28;20562;-61
2023/06/22 11:03:31;;;;;;;0.00;0.00;;;;;;;29.93;73.27;99183.22;5080614;28;20063;-61
2023/06/22 11:05:59;;;;;;;0.08;0.00;;;;;;;29.01;73.97;99173.84;5085683;28;20380;-62
2023/06/22 11:08:26;;;;;;;0.00;0.00;;;;;;;29.09;72.63;99176.78;5082271;28;20110;-61
2023/06/22 11:10:54;;;;;;;0.00;0.00;;;;;;;29.15;75.55;99167.81;5073824;28;20054;-61
2023/06/22 11:13:21;;;;;;;0.00;0.00;;;;;;;28.97;74.55;99155.66;5077779;28;20149;-61
2023/06/22 11:15:50;;;;;;;0.00;0.00;;;;;;;28.77;72.24;99146.63;5076379;28;20242;-60
2023/06/22 11:18:17;;;;;;;0.22;0.03;;;;;;;27.88;76.63;99156.63;5072313;28;20152;-60
2023/06/22 11:20:45;;;;;;;0.00;0.00;;;;;;;27.73;76.55;99142.53;5072999;28;20059;-60
2023/06/22 11:23:13;;;;;;;0.00;0.00;;;;;;;28.03;75.58;99142.03;5076239;28;20048;-60
2023/06/22 11:25:42;;;;;;;0.00;0.00;;;;;;;28.11;73.27;99131.94;5076291;28;20046;-62
2023/06/22 11:28:09;;;;;;;0.00;0.00;;;;;;;28.12;72.37;99139.03;5069066;28;20040;-62
2023/06/22 11:30:37;;;;;;;0.00;0.00;;;;;;;27.82;74.78;99136.03;5071161;28;20389;-61
2023/06/22 11:33:06;;;;;;;0.00;0.00;;;;;;;27.18;75.89;99138.84;5078575;28;20048;-61
2023/06/22 11:35:33;;;;;;;0.05;0.05;;;;;;;27.15;75.43;99142.31;5080234;28;20044;-61